ARG1719 SAAR-SABE
Flight info
| Callsign | ARG1719 |
|---|---|
| Flight time | N/A |
| Altitude | 23000 |
| Route | VASAL2G VASAL W20 MULTA W24 SNT SNT9R |
| Aircraft | E190/M-SDE3GILORVW/S |
Departure
| Time | 2026-04-27 01:05 |
|---|---|
| Airport | Rosario Islas Malvinas International Airport (SAAR) |
Arrival
| Time | N/A |
|---|---|
| Airport | Aeroparque Jorge Newbery (SABE) |
| Time | Latitude | Longitude | Altitude | Speed | Heading |
|---|---|---|---|---|---|
| 2026-04-27 00:53 | -32.91680 | -60.78154 | 94 ft | 0 kts | 111° |
| 2026-04-27 00:57 | -32.91677 | -60.78164 | 94 ft | 2 kts | 111° |
| 2026-04-27 00:57 | -32.91671 | -60.78182 | 96 ft | 2 kts | 111° |
| 2026-04-27 00:57 | -32.91665 | -60.78201 | 94 ft | 2 kts | 111° |
| 2026-04-27 00:57 | -32.91660 | -60.78219 | 95 ft | 2 kts | 111° |
| 2026-04-27 00:58 | -32.91654 | -60.78237 | 94 ft | 2 kts | 111° |
| 2026-04-27 00:58 | -32.91651 | -60.78256 | 94 ft | 2 kts | 54° |
| 2026-04-27 00:58 | -32.91659 | -60.78262 | 94 ft | 0 kts | 23° |
| 2026-04-27 00:59 | -32.91644 | -60.78255 | 97 ft | 6 kts | 21° |
| 2026-04-27 00:59 | -32.91627 | -60.78247 | 94 ft | 5 kts | 21° |
| 2026-04-27 00:59 | -32.91557 | -60.78214 | 94 ft | 16 kts | 21° |
| 2026-04-27 01:00 | -32.91453 | -60.78168 | 96 ft | 8 kts | 19° |
| 2026-04-27 01:00 | -32.91404 | -60.78176 | 94 ft | 7 kts | 323° |
| 2026-04-27 01:00 | -32.91356 | -60.78221 | 94 ft | 10 kts | 321° |
| 2026-04-27 01:00 | -32.91291 | -60.78285 | 94 ft | 14 kts | 321° |
| 2026-04-27 01:01 | -32.91207 | -60.78365 | 94 ft | 17 kts | 322° |
| 2026-04-27 01:01 | -32.91106 | -60.78459 | 95 ft | 20 kts | 324° |
| 2026-04-27 01:01 | -32.90978 | -60.78532 | 97 ft | 21 kts | 339° |
| 2026-04-27 01:01 | -32.90829 | -60.78572 | 97 ft | 23 kts | 3° |
| 2026-04-27 01:02 | -32.90658 | -60.78539 | 96 ft | 27 kts | 9° |
| 2026-04-27 01:02 | -32.90470 | -60.78496 | 94 ft | 29 kts | 12° |
| 2026-04-27 01:02 | -32.90259 | -60.78445 | 95 ft | 32 kts | 10° |
| 2026-04-27 01:02 | -32.90037 | -60.78396 | 95 ft | 33 kts | 11° |
| 2026-04-27 01:03 | -32.89803 | -60.78342 | 98 ft | 35 kts | 10° |
| 2026-04-27 01:03 | -32.89559 | -60.78288 | 99 ft | 36 kts | 11° |
| 2026-04-27 01:03 | -32.89310 | -60.78232 | 95 ft | 37 kts | 11° |
| 2026-04-27 01:03 | -32.89119 | -60.78153 | 96 ft | 25 kts | 41° |
| 2026-04-27 01:04 | -32.89042 | -60.78166 | 97 ft | 14 kts | 250° |
| 2026-04-27 01:04 | -32.89108 | -60.78191 | 96 ft | 11 kts | 187° |
| 2026-04-27 01:04 | -32.89325 | -60.78235 | 96 ft | 63 kts | 190° |
| 2026-04-27 01:04 | -32.89957 | -60.78376 | 94 ft | 120 kts | 191° |
| 2026-04-27 01:05 | -32.90931 | -60.78594 | 167 ft | 157 kts | 192° |
| 2026-04-27 01:05 | -32.92027 | -60.78863 | 749 ft | 165 kts | 194° |
| 2026-04-27 01:05 | -32.93146 | -60.79137 | 1582 ft | 160 kts | 192° |
| 2026-04-27 01:05 | -32.94269 | -60.79350 | 2288 ft | 165 kts | 192° |
| 2026-04-27 01:06 | -32.95443 | -60.79606 | 2753 ft | 183 kts | 193° |
| 2026-04-27 01:06 | -32.96737 | -60.79911 | 3422 ft | 191 kts | 192° |
| 2026-04-27 01:06 | -32.98051 | -60.80207 | 4210 ft | 194 kts | 192° |
| 2026-04-27 01:06 | -32.99413 | -60.80403 | 4909 ft | 200 kts | 181° |
| 2026-04-27 01:07 | -33.00821 | -60.80274 | 5600 ft | 206 kts | 174° |
| 2026-04-27 01:07 | -33.02230 | -60.79799 | 6171 ft | 220 kts | 161° |
| 2026-04-27 01:07 | -33.03663 | -60.78891 | 6475 ft | 244 kts | 154° |
| 2026-04-27 01:07 | -33.05102 | -60.77668 | 6823 ft | 264 kts | 146° |
| 2026-04-27 01:08 | -33.06532 | -60.76220 | 7311 ft | 274 kts | 146° |
| 2026-04-27 01:08 | -33.07983 | -60.74708 | 7850 ft | 282 kts | 147° |
| 2026-04-27 01:08 | -33.09526 | -60.73143 | 8143 ft | 300 kts | 148° |
| 2026-04-27 01:08 | -33.11132 | -60.71491 | 8602 ft | 308 kts | 148° |
| 2026-04-27 01:09 | -33.12767 | -60.69800 | 9193 ft | 314 kts | 149° |
| 2026-04-27 01:09 | -33.14437 | -60.68086 | 9823 ft | 319 kts | 150° |
| 2026-04-27 01:09 | -33.16139 | -60.66339 | 10430 ft | 325 kts | 150° |
| 2026-04-27 01:09 | -33.17868 | -60.64565 | 11037 ft | 331 kts | 150° |
| 2026-04-27 01:10 | -33.19621 | -60.62755 | 11656 ft | 336 kts | 150° |
| 2026-04-27 01:10 | -33.21380 | -60.60944 | 12263 ft | 341 kts | 150° |
| 2026-04-27 01:10 | -33.23215 | -60.59052 | 12888 ft | 347 kts | 150° |
| 2026-04-27 01:10 | -33.25033 | -60.57173 | 13509 ft | 353 kts | 150° |
| 2026-04-27 01:11 | -33.26909 | -60.55239 | 14118 ft | 359 kts | 150° |
| 2026-04-27 01:11 | -33.28811 | -60.53275 | 14741 ft | 363 kts | 150° |
| 2026-04-27 01:11 | -33.30731 | -60.51298 | 15366 ft | 365 kts | 151° |
| 2026-04-27 01:11 | -33.32721 | -60.49415 | 15977 ft | 365 kts | 154° |
| 2026-04-27 01:12 | -33.34760 | -60.47602 | 16570 ft | 366 kts | 156° |
| 2026-04-27 01:12 | -33.36905 | -60.46002 | 17163 ft | 364 kts | 160° |
| 2026-04-27 01:12 | -33.39089 | -60.44443 | 17756 ft | 367 kts | 161° |
| 2026-04-27 01:12 | -33.41303 | -60.42898 | 18347 ft | 370 kts | 161° |
| 2026-04-27 01:13 | -33.43528 | -60.41347 | 18880 ft | 373 kts | 161° |
| 2026-04-27 01:13 | -33.45799 | -60.39766 | 19423 ft | 377 kts | 161° |
| 2026-04-27 01:13 | -33.48071 | -60.38182 | 19980 ft | 380 kts | 161° |
| 2026-04-27 01:13 | -33.50371 | -60.36577 | 20562 ft | 384 kts | 161° |
| 2026-04-27 01:14 | -33.52686 | -60.34960 | 21093 ft | 387 kts | 161° |
| 2026-04-27 01:14 | -33.55024 | -60.33324 | 21610 ft | 391 kts | 161° |
| 2026-04-27 01:14 | -33.57380 | -60.31677 | 22095 ft | 394 kts | 161° |
| 2026-04-27 01:14 | -33.59754 | -60.30012 | 22579 ft | 397 kts | 161° |
| 2026-04-27 01:15 | -33.62147 | -60.28337 | 23002 ft | 399 kts | 161° |
| 2026-04-27 01:15 | -33.64527 | -60.26665 | 23085 ft | 397 kts | 161° |
| 2026-04-27 01:15 | -33.66883 | -60.25014 | 23121 ft | 398 kts | 161° |
| 2026-04-27 01:15 | -33.69278 | -60.23333 | 23138 ft | 398 kts | 161° |
| 2026-04-27 01:16 | -33.71666 | -60.21655 | 23139 ft | 398 kts | 161° |
| 2026-04-27 01:16 | -33.74052 | -60.19978 | 23134 ft | 397 kts | 161° |
| 2026-04-27 01:16 | -33.76435 | -60.18301 | 23126 ft | 396 kts | 161° |
| 2026-04-27 01:16 | -33.78817 | -60.16625 | 23126 ft | 397 kts | 161° |
| 2026-04-27 01:17 | -33.81176 | -60.14906 | 23122 ft | 403 kts | 155° |
| 2026-04-27 01:17 | -33.83298 | -60.12587 | 23126 ft | 419 kts | 144° |
| 2026-04-27 01:17 | -33.85257 | -60.09957 | 23130 ft | 423 kts | 141° |
| 2026-04-27 01:17 | -33.87154 | -60.07204 | 23133 ft | 438 kts | 136° |
| 2026-04-27 01:18 | -33.88927 | -60.04121 | 23147 ft | 454 kts | 134° |
| 2026-04-27 01:18 | -33.90739 | -60.00940 | 23160 ft | 467 kts | 133° |
| 2026-04-27 01:18 | -33.92562 | -59.97671 | 23144 ft | 472 kts | 133° |
| 2026-04-27 01:18 | -33.94392 | -59.94387 | 23066 ft | 473 kts | 133° |
| 2026-04-27 01:19 | -33.95603 | -59.92217 | 22761 ft | 471 kts | 133° |
| 2026-04-27 01:19 | -33.98028 | -59.87861 | 22293 ft | 467 kts | 133° |
| 2026-04-27 01:19 | -33.99229 | -59.85705 | 22094 ft | 466 kts | 133° |
| 2026-04-27 01:19 | -34.01027 | -59.82469 | 21803 ft | 464 kts | 133° |
| 2026-04-27 01:20 | -34.02822 | -59.79241 | 21516 ft | 463 kts | 133° |
| 2026-04-27 01:20 | -34.04610 | -59.76021 | 21228 ft | 461 kts | 134° |
| 2026-04-27 01:20 | -34.06391 | -59.72808 | 20950 ft | 460 kts | 134° |
| 2026-04-27 01:20 | -34.08168 | -59.69603 | 20676 ft | 459 kts | 134° |
| 2026-04-27 01:21 | -34.09940 | -59.66402 | 20399 ft | 457 kts | 134° |
| 2026-04-27 01:21 | -34.11703 | -59.63216 | 20131 ft | 456 kts | 134° |
| 2026-04-27 01:21 | -34.13460 | -59.60034 | 19865 ft | 455 kts | 134° |
| 2026-04-27 01:21 | -34.15196 | -59.56893 | 19427 ft | 454 kts | 134° |
| 2026-04-27 01:22 | -34.16939 | -59.53729 | 18862 ft | 451 kts | 134° |
| 2026-04-27 01:22 | -34.18672 | -59.50589 | 18304 ft | 448 kts | 134° |
| 2026-04-27 01:22 | -34.20393 | -59.47489 | 17674 ft | 439 kts | 135° |
| 2026-04-27 01:22 | -34.22062 | -59.44437 | 17090 ft | 434 kts | 131° |
| 2026-04-27 01:23 | -34.23674 | -59.41388 | 16506 ft | 425 kts | 132° |
| 2026-04-27 01:23 | -34.25249 | -59.38409 | 15931 ft | 418 kts | 131° |
| 2026-04-27 01:23 | -34.26799 | -59.35468 | 15401 ft | 410 kts | 130° |
| 2026-04-27 01:23 | -34.28309 | -59.32595 | 14875 ft | 402 kts | 130° |
| 2026-04-27 01:24 | -34.29796 | -59.29774 | 14379 ft | 394 kts | 129° |
| 2026-04-27 01:24 | -34.31244 | -59.27015 | 13900 ft | 382 kts | 128° |
| 2026-04-27 01:24 | -34.32645 | -59.24343 | 13452 ft | 370 kts | 128° |
| 2026-04-27 01:24 | -34.34020 | -59.21722 | 13018 ft | 367 kts | 128° |
| 2026-04-27 01:25 | -34.35385 | -59.19123 | 12591 ft | 363 kts | 128° |
| 2026-04-27 01:25 | -34.36712 | -59.16588 | 12166 ft | 352 kts | 128° |
| 2026-04-27 01:25 | -34.38004 | -59.14122 | 11759 ft | 342 kts | 128° |
| 2026-04-27 01:25 | -34.39258 | -59.11727 | 11364 ft | 333 kts | 128° |
| 2026-04-27 01:26 | -34.40483 | -59.09387 | 10982 ft | 325 kts | 128° |
| 2026-04-27 01:26 | -34.41676 | -59.07106 | 10614 ft | 317 kts | 129° |
| 2026-04-27 01:26 | -34.42843 | -59.04873 | 10267 ft | 310 kts | 129° |
| 2026-04-27 01:26 | -34.43968 | -59.02713 | 9926 ft | 302 kts | 129° |
| 2026-04-27 01:27 | -34.45082 | -59.00583 | 9561 ft | 296 kts | 129° |
| 2026-04-27 01:27 | -34.46172 | -58.98496 | 9207 ft | 291 kts | 129° |
| 2026-04-27 01:27 | -34.47246 | -58.96434 | 8858 ft | 286 kts | 129° |
| 2026-04-27 01:27 | -34.48301 | -58.94410 | 8520 ft | 282 kts | 129° |
| 2026-04-27 01:28 | -34.49339 | -58.92414 | 8198 ft | 278 kts | 129° |
| 2026-04-27 01:28 | -34.50356 | -58.90460 | 7884 ft | 276 kts | 130° |
| 2026-04-27 01:28 | -34.51380 | -58.88493 | 7560 ft | 275 kts | 130° |
| 2026-04-27 01:28 | -34.52397 | -58.86534 | 7255 ft | 274 kts | 130° |
| 2026-04-27 01:29 | -34.53409 | -58.84582 | 6951 ft | 273 kts | 130° |
| 2026-04-27 01:29 | -34.54417 | -58.82645 | 6655 ft | 271 kts | 129° |
| 2026-04-27 01:29 | -34.55353 | -58.80650 | 6351 ft | 271 kts | 125° |
| 2026-04-27 01:29 | -34.56194 | -58.78614 | 6034 ft | 269 kts | 124° |
| 2026-04-27 01:30 | -34.56931 | -58.76581 | 5698 ft | 257 kts | 118° |
| 2026-04-27 01:30 | -34.57521 | -58.74551 | 5382 ft | 255 kts | 118° |
| 2026-04-27 01:30 | -34.58091 | -58.72522 | 5077 ft | 253 kts | 118° |
| 2026-04-27 01:30 | -34.58648 | -58.70503 | 4788 ft | 252 kts | 118° |
| 2026-04-27 01:31 | -34.59200 | -58.68499 | 4501 ft | 250 kts | 118° |
| 2026-04-27 01:31 | -34.59750 | -58.66506 | 4215 ft | 249 kts | 119° |
| 2026-04-27 01:31 | -34.60302 | -58.64519 | 3944 ft | 247 kts | 120° |
| 2026-04-27 01:31 | -34.61126 | -58.62805 | 3670 ft | 227 kts | 143° |
| 2026-04-27 01:32 | -34.62180 | -58.61411 | 3440 ft | 222 kts | 146° |
| 2026-04-27 01:32 | -34.63251 | -58.60072 | 3191 ft | 220 kts | 147° |
| 2026-04-27 01:32 | -34.64303 | -58.58765 | 3046 ft | 213 kts | 146° |
| 2026-04-27 01:32 | -34.65279 | -58.57411 | 2996 ft | 214 kts | 143° |
| 2026-04-27 01:33 | -34.66251 | -58.56042 | 2985 ft | 209 kts | 152° |
| 2026-04-27 01:33 | -34.67361 | -58.54967 | 3020 ft | 212 kts | 144° |
| 2026-04-27 01:33 | -34.68032 | -58.53258 | 3040 ft | 238 kts | 114° |
| 2026-04-27 01:33 | -34.68272 | -58.51236 | 3048 ft | 245 kts | 105° |
| 2026-04-27 01:34 | -34.68390 | -58.49196 | 3012 ft | 238 kts | 103° |
| 2026-04-27 01:34 | -34.68553 | -58.47080 | 3068 ft | 256 kts | 107° |
| 2026-04-27 01:34 | -34.68772 | -58.44937 | 3119 ft | 255 kts | 108° |
| 2026-04-27 01:34 | -34.69005 | -58.42841 | 3093 ft | 246 kts | 108° |
| 2026-04-27 01:35 | -34.69226 | -58.40838 | 3064 ft | 231 kts | 109° |
| 2026-04-27 01:35 | -34.69429 | -58.38975 | 3042 ft | 214 kts | 110° |
| 2026-04-27 01:35 | -34.69633 | -58.37208 | 3004 ft | 208 kts | 110° |
| 2026-04-27 01:35 | -34.69832 | -58.35475 | 2985 ft | 207 kts | 110° |
| 2026-04-27 01:36 | -34.70022 | -58.33751 | 2984 ft | 200 kts | 110° |
| 2026-04-27 01:36 | -34.70193 | -58.32110 | 3013 ft | 195 kts | 111° |
| 2026-04-27 01:36 | -34.70378 | -58.30471 | 3015 ft | 195 kts | 111° |
| 2026-04-27 01:36 | -34.70561 | -58.28838 | 3011 ft | 195 kts | 111° |
| 2026-04-27 01:37 | -34.70738 | -58.27201 | 3004 ft | 196 kts | 111° |
| 2026-04-27 01:37 | -34.70914 | -58.25557 | 2998 ft | 196 kts | 111° |